Terminal Aerodrome Forecast
Issued by NWS

Home | Current Version | Previous Version | Text Only | Print | Product List | Glossary On
Versions: 1 2 3 4 5 6 7 8 9 10 11 12 13 14 15 16 17 18 19 20 21 22 23
000
FTUS41 KPBZ 060523
TAFMGW
TAF
KMGW 060523Z 0606/0706 VRB03KT P6SM -RA BKN060
     FM061100 13004KT P6SM -SHRA BKN040
     FM061700 19006KT 4SM -SHRA BKN025
     FM070100 21005KT P6SM BKN040=

USA.gov is the U.S. government's official web portal to all federal, state and local government web resources and services.